createdAt,value
2023-04-27T00:02:11.680Z,98330.72
2023-04-27T00:04:39.199Z,98332.56
2023-04-27T00:07:06.884Z,98335.22
2023-04-27T00:09:34.436Z,98324.56
2023-04-27T00:12:01.889Z,98331.53
2023-04-27T00:14:29.215Z,98330.50
2023-04-27T00:16:56.866Z,98327.44
2023-04-27T00:19:23.876Z,98322.19
2023-04-27T00:21:51.447Z,98321.13
2023-04-27T00:24:18.387Z,98325.00
2023-04-27T00:26:46.075Z,98313.53
2023-04-27T00:29:13.779Z,98323.78
2023-04-27T00:31:41.261Z,98318.00
2023-04-27T00:34:08.944Z,98320.88
2023-04-27T00:36:36.214Z,98317.19
2023-04-27T00:39:04.458Z,98314.13
2023-04-27T00:41:32.757Z,98313.72
2023-04-27T00:44:00.188Z,98308.44
2023-04-27T00:46:28.204Z,98309.22
2023-04-27T00:48:56.567Z,98310.66
2023-04-27T00:51:28.333Z,98306.38
2023-04-27T00:53:57.590Z,98308.88
2023-04-27T00:56:25.169Z,98306.91
2023-04-27T00:58:52.197Z,98313.84
2023-04-27T01:01:20.711Z,98310.19
2023-04-27T01:03:48.884Z,98306.50
2023-04-27T01:06:16.100Z,98309.78
2023-04-27T01:08:44.677Z,98313.50
2023-04-27T01:11:11.647Z,98305.91
2023-04-27T01:13:39.761Z,98308.97
2023-04-27T01:16:06.846Z,98304.91
2023-04-27T01:18:35.022Z,98312.03
2023-04-27T01:21:02.035Z,98316.34
2023-04-27T01:23:29.415Z,98312.28
2023-04-27T01:25:56.778Z,98314.31
2023-04-27T01:28:23.817Z,98311.44
2023-04-27T01:30:51.334Z,98312.88
2023-04-27T01:33:18.416Z,98311.66
2023-04-27T01:35:48.827Z,98314.69
2023-04-27T01:38:16.451Z,98311.88
2023-04-27T01:40:44.484Z,98301.66
2023-04-27T01:43:11.450Z,98311.63
2023-04-27T01:45:38.601Z,98317.13
2023-04-27T01:48:06.302Z,98310.97
2023-04-27T01:50:33.356Z,98312.13
2023-04-27T01:53:01.057Z,98309.72
2023-04-27T01:55:29.465Z,98312.88
2023-04-27T01:57:56.454Z,98314.47
2023-04-27T02:00:23.416Z,98319.00
2023-04-27T02:02:53.660Z,98321.84
2023-04-27T02:05:20.839Z,98327.03
2023-04-27T02:07:49.646Z,98321.94
2023-04-27T02:10:16.636Z,98325.00
2023-04-27T02:12:44.070Z,98323.97
2023-04-27T02:15:11.014Z,98319.84
2023-04-27T02:17:39.666Z,98335.09
2023-04-27T02:20:07.795Z,98327.25
2023-04-27T02:22:35.222Z,98331.19
2023-04-27T02:25:02.952Z,98335.38
2023-04-27T02:27:29.920Z,98333.88
2023-04-27T02:29:58.717Z,98329.19
2023-04-27T02:32:27.324Z,98326.91
2023-04-27T02:34:55.527Z,98332.22
2023-04-27T02:37:22.628Z,98339.16
2023-04-27T02:39:49.767Z,98336.88
2023-04-27T02:42:16.974Z,98339.09
2023-04-27T02:44:44.290Z,98335.28
2023-04-27T02:47:13.084Z,98339.38
2023-04-27T02:49:40.778Z,98337.66
2023-04-27T02:52:08.208Z,98339.47
2023-04-27T02:54:35.462Z,98340.56
2023-04-27T02:57:03.168Z,98343.78
2023-04-27T02:59:30.900Z,98346.03
2023-04-27T03:01:57.853Z,98341.09
2023-04-27T03:04:24.948Z,98348.25
2023-04-27T03:06:52.221Z,98349.41
2023-04-27T03:09:19.499Z,98345.19
2023-04-27T03:11:46.524Z,98336.81
2023-04-27T03:14:13.898Z,98342.53
2023-04-27T03:16:41.013Z,98342.84
2023-04-27T03:19:08.630Z,98340.75
2023-04-27T03:21:36.052Z,98349.19
2023-04-27T03:24:03.774Z,98343.28
2023-04-27T03:26:31.629Z,98349.41
2023-04-27T03:28:58.596Z,98346.94
2023-04-27T03:31:29.300Z,98355.56
2023-04-27T03:33:57.086Z,98354.06
2023-04-27T03:36:24.449Z,98355.19
2023-04-27T03:38:51.535Z,98348.38
2023-04-27T03:41:18.859Z,98355.13
2023-04-27T03:43:45.938Z,98355.53
2023-04-27T03:46:13.022Z,98346.63
2023-04-27T03:48:41.124Z,98345.81
2023-04-27T03:51:08.916Z,98341.91
2023-04-27T03:53:36.722Z,98336.41
2023-04-27T03:56:04.315Z,98342.13
2023-04-27T03:58:31.627Z,98350.47
2023-04-27T04:01:21.982Z,98351.16
2023-04-27T04:03:50.704Z,98353.09
2023-04-27T04:06:17.825Z,98360.38
2023-04-27T04:08:45.995Z,98354.06
2023-04-27T04:11:13.294Z,98344.84
2023-04-27T04:13:41.300Z,98355.06
2023-04-27T04:16:09.926Z,98353.47
2023-04-27T04:18:37.319Z,98347.31
2023-04-27T04:21:06.001Z,98350.97
2023-04-27T04:23:33.203Z,98350.09
2023-04-27T04:26:02.079Z,98356.34
2023-04-27T04:28:33.054Z,98347.47
2023-04-27T04:31:02.054Z,98361.28
2023-04-27T04:33:29.456Z,98360.19
2023-04-27T04:35:56.435Z,98358.50
2023-04-27T04:38:24.099Z,98366.53
2023-04-27T04:40:52.913Z,98375.81
2023-04-27T04:43:19.989Z,98367.63
2023-04-27T04:45:48.130Z,98370.34
2023-04-27T04:48:16.713Z,98369.13
2023-04-27T04:50:45.822Z,98369.88
2023-04-27T04:53:13.830Z,98369.66
2023-04-27T04:55:41.860Z,98368.09
2023-04-27T04:58:09.741Z,98371.34
2023-04-27T05:00:36.887Z,98378.75
2023-04-27T05:03:04.047Z,98371.78
2023-04-27T05:05:31.523Z,98378.25
2023-04-27T05:07:59.022Z,98383.41
2023-04-27T05:10:26.469Z,98383.03
2023-04-27T05:12:53.463Z,98383.66
2023-04-27T05:15:20.987Z,98378.81
2023-04-27T05:17:48.329Z,98377.44
2023-04-27T05:20:16.206Z,98377.31
2023-04-27T05:22:43.778Z,98374.91
2023-04-27T05:25:11.349Z,98373.56
2023-04-27T05:27:38.622Z,98374.81
2023-04-27T05:30:06.505Z,98368.78
2023-04-27T05:32:36.999Z,98369.88
2023-04-27T05:35:05.546Z,98374.28
2023-04-27T05:37:32.913Z,98379.91
2023-04-27T05:40:00.408Z,98372.41
2023-04-27T05:42:27.936Z,98381.91
2023-04-27T05:44:55.289Z,98380.66
2023-04-27T05:47:22.712Z,98379.22
2023-04-27T05:49:53.183Z,98381.53
2023-04-27T05:52:22.232Z,98385.63
2023-04-27T05:54:50.081Z,98392.06
2023-04-27T05:57:17.337Z,98393.72
2023-04-27T05:59:44.307Z,98400.16
2023-04-27T06:02:11.695Z,98405.69
2023-04-27T06:04:39.149Z,98399.53
2023-04-27T06:07:10.476Z,98404.59
2023-04-27T06:09:38.027Z,98406.53
2023-04-27T06:12:06.911Z,98409.75
2023-04-27T06:14:36.464Z,98407.53
2023-04-27T06:17:04.479Z,98414.66
2023-04-27T06:19:31.748Z,98405.84
2023-04-27T06:21:59.127Z,98419.31
2023-04-27T06:24:26.546Z,98420.09
2023-04-27T06:26:54.544Z,98415.97
2023-04-27T06:29:21.612Z,98413.50
2023-04-27T06:31:49.481Z,98415.44
2023-04-27T06:34:17.042Z,98413.28
2023-04-27T06:36:44.387Z,98414.34
2023-04-27T06:39:11.840Z,98414.72
2023-04-27T06:41:39.322Z,98409.00
2023-04-27T06:44:16.727Z,98401.69
2023-04-27T06:46:44.526Z,98403.34
2023-04-27T06:49:12.014Z,98399.59
2023-04-27T06:51:39.515Z,98403.63
2023-04-27T06:54:07.617Z,98400.84
2023-04-27T06:56:34.938Z,98410.00
2023-04-27T06:59:02.343Z,98416.13
2023-04-27T07:01:29.843Z,98401.81
2023-04-27T07:03:57.725Z,98412.09
2023-04-27T07:06:26.036Z,98414.50
2023-04-27T07:08:53.487Z,98414.63
2023-04-27T07:11:20.932Z,98418.19
2023-04-27T07:13:48.290Z,98422.28
2023-04-27T07:16:16.797Z,98423.91
2023-04-27T07:18:44.644Z,98420.59
2023-04-27T07:21:12.029Z,98422.50
2023-04-27T07:23:42.909Z,98419.13
2023-04-27T07:26:10.419Z,98427.53
2023-04-27T07:28:39.132Z,98422.94
2023-04-27T07:31:06.904Z,98418.75
2023-04-27T07:33:35.308Z,98420.81
2023-04-27T07:36:03.027Z,98417.94
2023-04-27T07:38:31.276Z,98418.28
2023-04-27T07:41:03.214Z,98410.69
2023-04-27T07:43:35.240Z,98413.53
2023-04-27T07:46:03.660Z,98412.09
2023-04-27T07:48:30.815Z,98417.84
2023-04-27T07:50:58.197Z,98411.09
2023-04-27T07:53:25.932Z,98406.41
2023-04-27T07:55:53.344Z,98410.28
2023-04-27T07:58:20.877Z,98415.41
2023-04-27T08:00:48.301Z,98407.00
2023-04-27T08:03:15.937Z,98412.75
2023-04-27T08:05:43.279Z,98411.50
2023-04-27T08:08:11.352Z,98408.22
2023-04-27T08:10:38.614Z,98411.91
2023-04-27T08:13:10.430Z,98410.47
2023-04-27T08:15:38.588Z,98414.34
2023-04-27T08:18:05.644Z,98407.59
2023-04-27T08:20:32.696Z,98410.66
2023-04-27T08:22:59.862Z,98412.31
2023-04-27T08:25:27.950Z,98406.59
2023-04-27T08:27:55.626Z,98406.34
2023-04-27T08:30:23.025Z,98395.25
2023-04-27T08:32:50.132Z,98401.47
2023-04-27T08:35:20.488Z,98396.22
2023-04-27T08:37:49.882Z,98386.31
2023-04-27T08:40:17.344Z,98385.47
2023-04-27T08:42:56.273Z,98382.00
2023-04-27T08:45:28.792Z,98385.88
2023-04-27T08:47:57.189Z,98380.72
2023-04-27T08:50:25.033Z,98369.75
2023-04-27T08:52:55.604Z,98377.09
2023-04-27T08:55:23.644Z,98372.41
2023-04-27T08:57:56.150Z,98373.38
2023-04-27T09:00:26.030Z,98376.06
2023-04-27T09:02:54.702Z,98368.88
2023-04-27T09:05:23.635Z,98383.63
2023-04-27T09:08:16.870Z,98381.19
2023-04-27T09:10:51.751Z,98369.69
2023-04-27T09:13:22.481Z,98375.44
2023-04-27T09:15:52.758Z,98369.03
2023-04-27T09:18:22.605Z,98365.28
2023-04-27T09:20:52.102Z,98369.28
2023-04-27T09:23:31.843Z,98365.66
2023-04-27T09:26:05.686Z,98368.78
2023-04-27T09:28:37.932Z,98374.66
2023-04-27T09:31:09.487Z,98377.00
2023-04-27T09:33:39.711Z,98380.84
2023-04-27T09:36:07.743Z,98381.78
2023-04-27T09:38:37.773Z,98383.78
2023-04-27T09:41:07.102Z,98379.69
2023-04-27T09:43:34.290Z,98387.75
2023-04-27T09:46:04.355Z,98388.44
2023-04-27T09:48:31.680Z,98387.22
2023-04-27T09:51:26.357Z,98378.72
2023-04-27T09:53:56.861Z,98374.75
2023-04-27T09:57:03.558Z,98364.28
2023-04-27T09:59:53.841Z,98362.81
2023-04-27T10:02:25.681Z,98363.59
2023-04-27T10:05:17.515Z,98367.31
2023-04-27T10:07:46.280Z,98366.19
2023-04-27T10:10:20.900Z,98367.69
2023-04-27T10:13:03.724Z,98356.06
2023-04-27T10:15:32.051Z,98356.81
2023-04-27T10:18:05.849Z,98355.41
2023-04-27T10:20:37.060Z,98358.75
2023-04-27T10:23:04.958Z,98355.41
2023-04-27T10:25:42.700Z,98352.66
2023-04-27T10:28:17.714Z,98362.97
2023-04-27T10:30:48.924Z,98357.31
2023-04-27T10:33:19.935Z,98364.44
2023-04-27T10:36:00.412Z,98360.22
2023-04-27T10:38:30.383Z,98359.75
2023-04-27T10:41:05.089Z,98361.31
2023-04-27T10:43:35.643Z,98358.72
2023-04-27T10:46:14.892Z,98352.81
2023-04-27T10:48:43.983Z,98351.91
2023-04-27T10:51:16.622Z,98355.50
2023-04-27T10:53:43.930Z,98345.22
2023-04-27T10:56:11.632Z,98346.78
2023-04-27T11:01:09.926Z,98348.13
2023-04-27T11:03:37.564Z,98349.94
2023-04-27T11:06:06.287Z,98357.44
2023-04-27T11:08:36.942Z,98350.41
2023-04-27T11:11:06.277Z,98344.38
2023-04-27T11:13:34.175Z,98343.56
2023-04-27T11:16:02.138Z,98338.75
2023-04-27T11:18:35.877Z,98336.97
2023-04-27T11:21:10.973Z,98338.25
2023-04-27T11:23:39.689Z,98337.78
2023-04-27T11:26:17.427Z,98329.94
2023-04-27T11:28:57.085Z,98334.00
2023-04-27T11:31:24.759Z,98339.34
2023-04-27T11:33:53.230Z,98341.53
2023-04-27T11:36:23.240Z,98336.59
2023-04-27T11:38:50.897Z,98337.53
2023-04-27T11:41:18.522Z,98326.78
2023-04-27T11:43:49.821Z,98326.56
2023-04-27T11:46:21.586Z,98329.81
2023-04-27T11:48:49.582Z,98329.41
2023-04-27T11:51:16.639Z,98337.75
2023-04-27T11:53:48.353Z,98330.03
2023-04-27T11:56:15.775Z,98326.00
2023-04-27T11:58:46.406Z,98324.19
2023-04-27T12:01:13.659Z,98326.25
2023-04-27T12:03:41.200Z,98340.06
2023-04-27T12:06:27.510Z,98337.41
2023-04-27T12:08:57.157Z,98341.50
2023-04-27T12:11:28.010Z,98333.56
2023-04-27T12:13:56.806Z,98322.03
2023-04-27T12:16:23.947Z,98329.69
2023-04-27T12:18:51.935Z,98327.94
2023-04-27T12:21:19.547Z,98319.78
2023-04-27T12:23:46.615Z,98316.31
2023-04-27T12:26:15.382Z,98316.72
2023-04-27T12:28:43.812Z,98311.31
2023-04-27T12:31:16.601Z,98313.97
2023-04-27T12:33:43.807Z,98317.91
2023-04-27T12:36:11.316Z,98309.44
2023-04-27T12:38:38.350Z,98312.09
2023-04-27T12:41:05.918Z,98305.75
2023-04-27T12:43:35.328Z,98302.19
2023-04-27T12:46:03.382Z,98306.91
2023-04-27T12:48:30.983Z,98298.91
2023-04-27T12:50:58.671Z,98297.84
2023-04-27T12:53:25.757Z,98298.63
2023-04-27T12:55:53.675Z,98295.19
2023-04-27T12:58:21.671Z,98293.25
2023-04-27T13:00:48.694Z,98295.66
2023-04-27T13:03:15.845Z,98288.16
2023-04-27T13:05:44.700Z,98293.34
2023-04-27T13:08:12.311Z,98294.41
2023-04-27T13:10:40.552Z,98293.50
2023-04-27T13:13:07.887Z,98280.16
2023-04-27T13:15:36.488Z,98282.84
2023-04-27T13:18:06.323Z,98280.47
2023-04-27T13:20:33.918Z,98289.00
2023-04-27T13:23:01.007Z,98285.91
2023-04-27T13:25:29.295Z,98280.03
2023-04-27T13:27:58.248Z,98272.84
2023-04-27T13:30:25.511Z,98264.59
2023-04-27T13:32:53.383Z,98269.69
2023-04-27T13:35:21.271Z,98267.00
2023-04-27T13:37:48.794Z,98266.22
2023-04-27T13:40:15.943Z,98268.69
2023-04-27T13:42:43.118Z,98271.28
2023-04-27T13:45:11.203Z,98264.34
2023-04-27T13:47:42.192Z,98265.50
2023-04-27T13:50:13.463Z,98259.38
2023-04-27T13:52:41.313Z,98262.69
2023-04-27T13:55:10.932Z,98250.78
2023-04-27T13:57:38.474Z,98256.63
2023-04-27T14:00:11.675Z,98255.63
2023-04-27T14:02:39.530Z,98255.44
2023-04-27T14:05:07.327Z,98250.41
2023-04-27T14:07:35.782Z,98255.56
2023-04-27T14:10:06.980Z,98250.78
2023-04-27T14:12:34.188Z,98241.81
2023-04-27T14:15:01.437Z,98244.25
2023-04-27T14:17:28.517Z,98248.06
2023-04-27T14:19:56.045Z,98247.91
2023-04-27T14:22:23.441Z,98249.97
2023-04-27T14:24:52.037Z,98244.44
2023-04-27T14:27:19.099Z,98254.31
2023-04-27T14:29:46.095Z,98252.50
2023-04-27T14:32:13.463Z,98243.09
2023-04-27T14:34:41.110Z,98249.31
2023-04-27T14:37:08.253Z,98236.44
2023-04-27T14:39:35.844Z,98239.25
2023-04-27T14:42:09.920Z,98254.72
2023-04-27T14:44:37.064Z,98246.91
2023-04-27T14:47:05.129Z,98248.31
2023-04-27T14:49:32.238Z,98250.94
2023-04-27T14:52:03.569Z,98244.31
2023-04-27T14:54:31.131Z,98253.38
2023-04-27T14:56:59.092Z,98248.41
2023-04-27T14:59:26.851Z,98257.69
2023-04-27T15:01:54.357Z,98256.16
2023-04-27T15:04:21.859Z,98252.94
2023-04-27T15:06:49.283Z,98254.00
2023-04-27T15:09:16.780Z,98255.00
2023-04-27T15:11:43.795Z,98249.38
2023-04-27T15:14:12.078Z,98245.56
2023-04-27T15:16:39.788Z,98252.38
2023-04-27T15:19:07.495Z,98248.63
2023-04-27T15:21:34.472Z,98248.59
2023-04-27T15:24:01.791Z,98252.25
2023-04-27T15:26:28.961Z,98253.38
2023-04-27T15:28:58.375Z,98251.59
2023-04-27T15:31:26.141Z,98255.16
2023-04-27T15:33:54.688Z,98246.69
2023-04-27T15:36:23.132Z,98255.66
2023-04-27T15:38:52.097Z,98246.69
2023-04-27T15:41:19.495Z,98249.00
2023-04-27T15:43:47.499Z,98243.47
2023-04-27T15:46:15.667Z,98239.88
2023-04-27T15:48:42.669Z,98233.00
2023-04-27T15:51:10.618Z,98238.97
2023-04-27T15:53:37.912Z,98230.94
2023-04-27T15:56:05.280Z,98224.91
2023-04-27T15:58:32.682Z,98223.06
2023-04-27T16:01:00.139Z,98226.31
2023-04-27T16:03:27.678Z,98226.41
2023-04-27T16:05:55.035Z,98228.56
2023-04-27T16:08:22.520Z,98221.31
2023-04-27T16:10:50.371Z,98211.81
2023-04-27T16:13:17.284Z,98219.47
2023-04-27T16:15:44.775Z,98207.69
2023-04-27T16:18:11.805Z,98204.56
2023-04-27T16:20:38.894Z,98194.91
2023-04-27T16:23:05.918Z,98195.09
2023-04-27T16:25:32.872Z,98201.94
2023-04-27T16:28:00.041Z,98193.06
2023-04-27T16:30:27.430Z,98193.50
2023-04-27T16:32:55.564Z,98187.38
2023-04-27T16:35:23.249Z,98188.34
2023-04-27T16:37:50.911Z,98193.97
2023-04-27T16:40:18.498Z,98191.47
2023-04-27T16:42:46.535Z,98189.09
2023-04-27T16:45:13.678Z,98184.47
2023-04-27T16:47:45.457Z,98188.69
2023-04-27T16:50:13.192Z,98188.41
2023-04-27T16:52:40.765Z,98191.72
2023-04-27T16:55:09.034Z,98188.41
2023-04-27T16:57:36.983Z,98186.63
2023-04-27T17:00:09.973Z,98184.50
2023-04-27T17:02:43.134Z,98187.03
2023-04-27T17:05:12.064Z,98183.97
2023-04-27T17:07:39.494Z,98184.50
2023-04-27T17:10:12.728Z,98190.50
2023-04-27T17:12:40.199Z,98177.13
2023-04-27T17:15:15.002Z,98178.59
2023-04-27T17:17:42.132Z,98181.13
2023-04-27T17:20:10.384Z,98189.06
2023-04-27T17:22:37.896Z,98183.72
2023-04-27T17:25:05.668Z,98187.41
2023-04-27T17:27:33.192Z,98189.78
2023-04-27T17:30:01.409Z,98192.44
2023-04-27T17:32:28.984Z,98184.66
2023-04-27T17:34:57.628Z,98186.28
2023-04-27T17:37:24.746Z,98189.00
2023-04-27T17:39:53.245Z,98190.03
2023-04-27T17:42:20.530Z,98197.63
2023-04-27T17:44:47.919Z,98202.44
2023-04-27T17:47:15.368Z,98201.38
2023-04-27T17:49:42.441Z,98192.50
2023-04-27T17:52:09.885Z,98200.91
2023-04-27T17:54:37.549Z,98195.72
2023-04-27T17:57:05.223Z,98185.41
2023-04-27T17:59:32.370Z,98174.78
2023-04-27T18:02:02.876Z,98182.47
2023-04-27T18:04:30.193Z,98180.78
2023-04-27T18:06:57.427Z,98185.63
2023-04-27T18:09:26.355Z,98182.78
2023-04-27T18:11:53.361Z,98178.75
2023-04-27T18:14:20.704Z,98179.03
2023-04-27T18:16:49.578Z,98177.25
2023-04-27T18:19:17.124Z,98188.00
2023-04-27T18:21:44.420Z,98186.63
2023-04-27T18:24:11.698Z,98190.09
2023-04-27T18:26:38.732Z,98198.41
2023-04-27T18:29:05.728Z,98193.22
2023-04-27T18:31:33.025Z,98198.66
2023-04-27T18:34:00.224Z,98205.56
2023-04-27T18:36:27.813Z,98201.16
2023-04-27T18:38:55.642Z,98199.78
2023-04-27T18:41:23.717Z,98211.31
2023-04-27T18:43:50.722Z,98209.78
2023-04-27T18:46:17.820Z,98208.56
2023-04-27T18:48:45.573Z,98222.44
2023-04-27T18:51:12.543Z,98220.31
2023-04-27T18:53:39.518Z,98215.63
2023-04-27T18:56:08.119Z,98208.59
2023-04-27T18:58:36.538Z,98217.44
2023-04-27T19:01:03.736Z,98201.84
2023-04-27T19:03:31.358Z,98201.69
2023-04-27T19:05:58.872Z,98199.22
2023-04-27T19:08:26.390Z,98203.06
2023-04-27T19:10:53.703Z,98197.63
2023-04-27T19:13:21.084Z,98206.19
2023-04-27T19:15:48.253Z,98210.06
2023-04-27T19:18:15.389Z,98214.63
2023-04-27T19:20:42.542Z,98217.72
2023-04-27T19:23:12.426Z,98223.00
2023-04-27T19:25:40.412Z,98220.88
2023-04-27T19:28:08.033Z,98222.59
2023-04-27T19:30:35.062Z,98219.75
2023-04-27T19:33:02.540Z,98222.22
2023-04-27T19:35:30.364Z,98214.53
2023-04-27T19:37:57.488Z,98221.47
2023-04-27T19:40:24.662Z,98225.66
2023-04-27T19:42:52.049Z,98228.34
2023-04-27T19:45:20.363Z,98223.28
2023-04-27T19:47:48.739Z,98223.88
2023-04-27T19:50:16.810Z,98225.25
2023-04-27T19:52:44.190Z,98212.09
2023-04-27T19:55:11.441Z,98205.81
2023-04-27T19:57:38.418Z,98201.06
2023-04-27T20:00:10.282Z,98200.56
2023-04-27T20:02:40.763Z,98204.53
2023-04-27T20:05:09.226Z,98204.16
2023-04-27T20:07:37.474Z,98206.13
2023-04-27T20:10:05.665Z,98205.81
2023-04-27T20:12:51.602Z,98199.09
2023-04-27T20:15:20.048Z,98197.56
2023-04-27T20:17:47.231Z,98201.31
2023-04-27T20:20:14.219Z,98191.41
2023-04-27T20:22:41.544Z,98202.59
2023-04-27T20:25:09.177Z,98208.03
2023-04-27T20:27:36.466Z,98202.69
2023-04-27T20:30:04.414Z,98202.22
2023-04-27T20:32:31.868Z,98196.84
2023-04-27T20:35:00.118Z,98190.59
2023-04-27T20:37:28.609Z,98198.72
2023-04-27T20:39:55.864Z,98203.03
2023-04-27T20:42:22.851Z,98198.25
2023-04-27T20:44:50.627Z,98190.34
2023-04-27T20:47:18.022Z,98188.13
2023-04-27T20:49:44.980Z,98185.09
2023-04-27T20:52:12.436Z,98175.13
2023-04-27T20:54:39.952Z,98183.69
2023-04-27T20:57:13.749Z,98175.56
2023-04-27T20:59:41.579Z,98176.25
2023-04-27T21:02:09.021Z,98182.31
2023-04-27T21:04:36.639Z,98180.59
2023-04-27T21:07:04.112Z,98177.44
2023-04-27T21:09:31.646Z,98168.00
2023-04-27T21:11:59.009Z,98165.09
2023-04-27T21:14:25.966Z,98163.00
2023-04-27T21:16:53.157Z,98161.38
2023-04-27T21:19:20.812Z,98164.53
2023-04-27T21:21:47.832Z,98156.94
2023-04-27T21:24:15.518Z,98152.88
2023-04-27T21:26:42.668Z,98148.09
2023-04-27T21:29:09.670Z,98157.63
2023-04-27T21:31:37.422Z,98167.03
2023-04-27T21:34:04.654Z,98151.44
2023-04-27T21:36:33.164Z,98147.13
2023-04-27T21:39:00.150Z,98143.03
2023-04-27T21:41:27.549Z,98146.28
2023-04-27T21:43:54.718Z,98142.47
2023-04-27T21:46:24.050Z,98141.78
2023-04-27T21:48:51.450Z,98141.88
2023-04-27T21:51:19.102Z,98130.03
2023-04-27T21:53:46.565Z,98124.84
2023-04-27T21:56:13.891Z,98131.31
2023-04-27T21:58:40.870Z,98128.59
2023-04-27T22:01:07.909Z,98119.06
2023-04-27T22:03:35.023Z,98120.94
2023-04-27T22:06:02.296Z,98127.78
2023-04-27T22:08:29.351Z,98114.50
2023-04-27T22:10:56.425Z,98118.00
2023-04-27T22:13:23.395Z,98117.53
2023-04-27T22:15:51.122Z,98118.22
2023-04-27T22:18:18.872Z,98120.88
2023-04-27T22:20:46.247Z,98114.03
2023-04-27T22:23:13.703Z,98125.81
2023-04-27T22:25:42.885Z,98121.19
2023-04-27T22:28:10.834Z,98117.94
2023-04-27T22:30:38.941Z,98122.59
2023-04-27T22:33:06.345Z,98113.66
2023-04-27T22:35:34.284Z,98116.53
2023-04-27T22:38:01.290Z,98121.88
2023-04-27T22:40:28.893Z,98116.28
2023-04-27T22:42:56.060Z,98117.03
2023-04-27T22:45:23.798Z,98117.56
2023-04-27T22:47:51.286Z,98110.66
2023-04-27T22:50:18.769Z,98112.94
2023-04-27T22:52:45.970Z,98115.63
2023-04-27T22:55:13.402Z,98111.03
2023-04-27T22:57:41.769Z,98111.09
2023-04-27T23:00:11.828Z,98110.91
2023-04-27T23:02:40.292Z,98106.88
2023-04-27T23:05:08.207Z,98109.31
2023-04-27T23:07:36.145Z,98104.81
2023-04-27T23:10:03.789Z,98100.72
2023-04-27T23:12:31.820Z,98106.19
2023-04-27T23:14:59.271Z,98107.63
2023-04-27T23:17:33.226Z,98114.09
2023-04-27T23:20:01.724Z,98114.38
2023-04-27T23:22:29.466Z,98119.50
2023-04-27T23:24:56.979Z,98114.25
2023-04-27T23:27:24.850Z,98115.84
2023-04-27T23:29:52.700Z,98105.56
2023-04-27T23:32:20.048Z,98106.25
2023-04-27T23:34:47.573Z,98106.28
2023-04-27T23:37:14.575Z,98105.81
2023-04-27T23:39:41.784Z,98097.84
2023-04-27T23:42:09.183Z,98095.41
2023-04-27T23:44:36.541Z,98087.72
2023-04-27T23:47:03.660Z,98086.44
2023-04-27T23:49:31.002Z,98076.47
2023-04-27T23:51:58.430Z,98080.63
2023-04-27T23:54:26.110Z,98076.78
2023-04-27T23:56:53.144Z,98078.53
2023-04-27T23:59:20.612Z,98078.63
